sensor_id;sensor_type;location;lat;lon;timestamp;pressure;altitude;pressure_sealevel;temperature
69420;BMP280;56612;52.030;113.524;2023-05-07T00:01:11;93354.31;;;14.19
69420;BMP280;56612;52.030;113.524;2023-05-07T00:04:14;93348.97;;;14.27
69420;BMP280;56612;52.030;113.524;2023-05-07T00:07:18;93359.59;;;13.97
69420;BMP280;56612;52.030;113.524;2023-05-07T00:10:22;93354.13;;;13.75
69420;BMP280;56612;52.030;113.524;2023-05-07T00:13:25;93355.53;;;13.88
69420;BMP280;56612;52.030;113.524;2023-05-07T00:16:30;93342.22;;;14.24
69420;BMP280;56612;52.030;113.524;2023-05-07T00:19:33;93341.63;;;14.50
69420;BMP280;56612;52.030;113.524;2023-05-07T00:22:36;93340.91;;;14.44
69420;BMP280;56612;52.030;113.524;2023-05-07T00:25:40;93347.00;;;14.60
69420;BMP280;56612;52.030;113.524;2023-05-07T00:28:44;93342.34;;;15.12
69420;BMP280;56612;52.030;113.524;2023-05-07T00:31:49;93336.94;;;15.40
69420;BMP280;56612;52.030;113.524;2023-05-07T00:34:53;93332.16;;;15.53
69420;BMP280;56612;52.030;113.524;2023-05-07T00:37:56;93324.72;;;15.71
69420;BMP280;56612;52.030;113.524;2023-05-07T00:40:59;93319.88;;;15.96
69420;BMP280;56612;52.030;113.524;2023-05-07T00:44:03;93323.19;;;16.11
69420;BMP280;56612;52.030;113.524;2023-05-07T00:47:07;93315.03;;;16.25
69420;BMP280;56612;52.030;113.524;2023-05-07T00:50:11;93307.75;;;16.05
69420;BMP280;56612;52.030;113.524;2023-05-07T00:53:15;93315.00;;;16.29
69420;BMP280;56612;52.030;113.524;2023-05-07T00:56:21;93311.00;;;16.26
69420;BMP280;56612;52.030;113.524;2023-05-07T00:59:24;93320.31;;;16.43
69420;BMP280;56612;52.030;113.524;2023-05-07T01:02:29;93312.06;;;16.68
69420;BMP280;56612;52.030;113.524;2023-05-07T01:05:32;93299.88;;;16.71
69420;BMP280;56612;52.030;113.524;2023-05-07T01:08:36;93300.22;;;16.24
69420;BMP280;56612;52.030;113.524;2023-05-07T01:11:43;93296.03;;;16.41
69420;BMP280;56612;52.030;113.524;2023-05-07T01:14:48;93303.97;;;16.68
69420;BMP280;56612;52.030;113.524;2023-05-07T01:17:52;93309.13;;;16.96
69420;BMP280;56612;52.030;113.524;2023-05-07T01:21:04;93297.72;;;16.89
69420;BMP280;56612;52.030;113.524;2023-05-07T01:24:08;93280.13;;;16.92
69420;BMP280;56612;52.030;113.524;2023-05-07T01:27:12;93292.63;;;17.28
69420;BMP280;56612;52.030;113.524;2023-05-07T01:30:16;93283.34;;;17.73
69420;BMP280;56612;52.030;113.524;2023-05-07T01:33:21;93279.91;;;17.76
69420;BMP280;56612;52.030;113.524;2023-05-07T01:36:26;93267.97;;;18.12
69420;BMP280;56612;52.030;113.524;2023-05-07T01:39:32;93269.88;;;18.61
69420;BMP280;56612;52.030;113.524;2023-05-07T01:42:36;93274.03;;;18.56
69420;BMP280;56612;52.030;113.524;2023-05-07T01:45:40;93296.53;;;17.42
69420;BMP280;56612;52.030;113.524;2023-05-07T01:48:44;93276.09;;;17.59
69420;BMP280;56612;52.030;113.524;2023-05-07T01:51:49;93275.44;;;17.54
69420;BMP280;56612;52.030;113.524;2023-05-07T01:54:53;93265.09;;;18.22
69420;BMP280;56612;52.030;113.524;2023-05-07T01:57:57;93262.09;;;18.83
69420;BMP280;56612;52.030;113.524;2023-05-07T02:01:00;93247.06;;;19.28
69420;BMP280;56612;52.030;113.524;2023-05-07T02:04:04;93241.91;;;19.81
69420;BMP280;56612;52.030;113.524;2023-05-07T02:07:07;93233.63;;;20.18
69420;BMP280;56612;52.030;113.524;2023-05-07T02:10:11;93242.78;;;19.39
69420;BMP280;56612;52.030;113.524;2023-05-07T02:13:16;93235.75;;;19.83
69420;BMP280;56612;52.030;113.524;2023-05-07T02:16:20;93239.78;;;20.72
69420;BMP280;56612;52.030;113.524;2023-05-07T02:19:25;93237.66;;;21.27
69420;BMP280;56612;52.030;113.524;2023-05-07T02:22:28;93244.34;;;21.30
69420;BMP280;56612;52.030;113.524;2023-05-07T02:25:32;93250.91;;;21.86
69420;BMP280;56612;52.030;113.524;2023-05-07T02:28:35;93231.53;;;21.96
69420;BMP280;56612;52.030;113.524;2023-05-07T02:31:40;93233.91;;;23.48
69420;BMP280;56612;52.030;113.524;2023-05-07T02:34:44;93229.88;;;24.18
69420;BMP280;56612;52.030;113.524;2023-05-07T02:37:47;93222.19;;;24.39
69420;BMP280;56612;52.030;113.524;2023-05-07T02:40:51;93221.66;;;25.16
69420;BMP280;56612;52.030;113.524;2023-05-07T02:43:54;93230.16;;;25.24
69420;BMP280;56612;52.030;113.524;2023-05-07T02:46:57;93213.44;;;25.16
69420;BMP280;56612;52.030;113.524;2023-05-07T02:50:00;93218.69;;;25.66
69420;BMP280;56612;52.030;113.524;2023-05-07T02:53:04;93220.41;;;25.88
69420;BMP280;56612;52.030;113.524;2023-05-07T02:56:07;93204.44;;;25.49
69420;BMP280;56612;52.030;113.524;2023-05-07T02:59:11;93220.78;;;22.36
69420;BMP280;56612;52.030;113.524;2023-05-07T03:02:16;93208.44;;;21.02
69420;BMP280;56612;52.030;113.524;2023-05-07T03:05:19;93211.84;;;20.49
69420;BMP280;56612;52.030;113.524;2023-05-07T03:08:23;93201.81;;;19.86
69420;BMP280;56612;52.030;113.524;2023-05-07T03:11:27;93198.59;;;20.89
69420;BMP280;56612;52.030;113.524;2023-05-07T03:14:31;93201.28;;;20.91
69420;BMP280;56612;52.030;113.524;2023-05-07T03:17:34;93203.56;;;21.32
69420;BMP280;56612;52.030;113.524;2023-05-07T03:20:37;93207.34;;;22.30
69420;BMP280;56612;52.030;113.524;2023-05-07T03:23:41;93216.00;;;23.15
69420;BMP280;56612;52.030;113.524;2023-05-07T03:26:45;93191.53;;;21.47
69420;BMP280;56612;52.030;113.524;2023-05-07T03:29:48;93200.63;;;20.63
69420;BMP280;56612;52.030;113.524;2023-05-07T03:32:51;93196.03;;;20.29
69420;BMP280;56612;52.030;113.524;2023-05-07T03:35:55;93199.59;;;20.50
69420;BMP280;56612;52.030;113.524;2023-05-07T03:39:00;93197.94;;;20.06
69420;BMP280;56612;52.030;113.524;2023-05-07T03:42:11;93190.47;;;20.35
69420;BMP280;56612;52.030;113.524;2023-05-07T03:45:15;93187.28;;;21.98
69420;BMP280;56612;52.030;113.524;2023-05-07T03:48:25;93167.00;;;19.96
69420;BMP280;56612;52.030;113.524;2023-05-07T03:51:31;93179.41;;;19.56
69420;BMP280;56612;52.030;113.524;2023-05-07T03:54:36;93180.53;;;20.52
69420;BMP280;56612;52.030;113.524;2023-05-07T03:57:40;93187.97;;;21.53
69420;BMP280;56612;52.030;113.524;2023-05-07T04:00:44;93170.06;;;19.80
69420;BMP280;56612;52.030;113.524;2023-05-07T04:03:56;93157.66;;;21.20
69420;BMP280;56612;52.030;113.524;2023-05-07T04:07:01;93155.53;;;21.90
69420;BMP280;56612;52.030;113.524;2023-05-07T04:10:12;93153.38;;;20.79
69420;BMP280;56612;52.030;113.524;2023-05-07T04:13:19;93152.44;;;21.36
69420;BMP280;56612;52.030;113.524;2023-05-07T04:16:22;93134.34;;;23.99
69420;BMP280;56612;52.030;113.524;2023-05-07T04:19:26;93134.03;;;24.07
69420;BMP280;56612;52.030;113.524;2023-05-07T04:22:31;93127.91;;;22.44
69420;BMP280;56612;52.030;113.524;2023-05-07T04:25:35;93120.97;;;22.68
69420;BMP280;56612;52.030;113.524;2023-05-07T04:29:01;93117.56;;;22.28
69420;BMP280;56612;52.030;113.524;2023-05-07T04:32:09;93105.94;;;22.69
69420;BMP280;56612;52.030;113.524;2023-05-07T04:35:14;93117.59;;;22.07
69420;BMP280;56612;52.030;113.524;2023-05-07T04:38:17;93119.31;;;22.75
69420;BMP280;56612;52.030;113.524;2023-05-07T04:41:23;93099.53;;;23.49
69420;BMP280;56612;52.030;113.524;2023-05-07T04:44:27;93101.66;;;24.93
69420;BMP280;56612;52.030;113.524;2023-05-07T04:47:30;93095.88;;;25.87
69420;BMP280;56612;52.030;113.524;2023-05-07T04:50:35;93086.94;;;28.84
69420;BMP280;56612;52.030;113.524;2023-05-07T04:53:39;93089.13;;;29.58
69420;BMP280;56612;52.030;113.524;2023-05-07T04:56:44;93077.16;;;26.32
69420;BMP280;56612;52.030;113.524;2023-05-07T04:59:47;93074.63;;;24.24
69420;BMP280;56612;52.030;113.524;2023-05-07T05:02:51;93083.94;;;25.21
69420;BMP280;56612;52.030;113.524;2023-05-07T05:05:56;93079.28;;;25.62
69420;BMP280;56612;52.030;113.524;2023-05-07T05:09:06;93058.50;;;27.96
69420;BMP280;56612;52.030;113.524;2023-05-07T05:12:10;93038.25;;;29.46
69420;BMP280;56612;52.030;113.524;2023-05-07T05:15:14;93043.34;;;28.21
69420;BMP280;56612;52.030;113.524;2023-05-07T05:18:18;93045.44;;;27.13
69420;BMP280;56612;52.030;113.524;2023-05-07T05:21:21;93039.44;;;24.94
69420;BMP280;56612;52.030;113.524;2023-05-07T05:24:30;93046.97;;;24.32
69420;BMP280;56612;52.030;113.524;2023-05-07T05:27:35;93039.41;;;23.85
69420;BMP280;56612;52.030;113.524;2023-05-07T05:30:40;93048.16;;;24.67
69420;BMP280;56612;52.030;113.524;2023-05-07T05:33:44;93043.94;;;25.85
69420;BMP280;56612;52.030;113.524;2023-05-07T05:36:48;93033.00;;;29.10
69420;BMP280;56612;52.030;113.524;2023-05-07T05:39:53;93041.09;;;27.53
69420;BMP280;56612;52.030;113.524;2023-05-07T05:43:00;93041.19;;;28.78
69420;BMP280;56612;52.030;113.524;2023-05-07T05:46:05;93024.84;;;27.85
69420;BMP280;56612;52.030;113.524;2023-05-07T05:49:08;93027.34;;;24.88
69420;BMP280;56612;52.030;113.524;2023-05-07T05:52:14;93014.06;;;26.34
69420;BMP280;56612;52.030;113.524;2023-05-07T05:55:17;93017.31;;;30.21
69420;BMP280;56612;52.030;113.524;2023-05-07T05:58:22;93014.97;;;33.10
69420;BMP280;56612;52.030;113.524;2023-05-07T06:01:31;93048.50;;;34.40
69420;BMP280;56612;52.030;113.524;2023-05-07T06:04:37;93061.09;;;33.22
69420;BMP280;56612;52.030;113.524;2023-05-07T06:07:41;93053.94;;;33.34
69420;BMP280;56612;52.030;113.524;2023-05-07T06:10:45;93041.38;;;33.01
69420;BMP280;56612;52.030;113.524;2023-05-07T06:13:50;93038.94;;;33.98
69420;BMP280;56612;52.030;113.524;2023-05-07T06:16:54;93058.28;;;34.15
69420;BMP280;56612;52.030;113.524;2023-05-07T06:19:58;93044.88;;;34.50
69420;BMP280;56612;52.030;113.524;2023-05-07T06:23:02;93030.78;;;33.29
69420;BMP280;56612;52.030;113.524;2023-05-07T06:26:08;93046.81;;;34.19
69420;BMP280;56612;52.030;113.524;2023-05-07T06:29:16;93039.56;;;33.32
69420;BMP280;56612;52.030;113.524;2023-05-07T06:32:20;93040.72;;;32.74
69420;BMP280;56612;52.030;113.524;2023-05-07T06:35:25;93036.91;;;32.35
69420;BMP280;56612;52.030;113.524;2023-05-07T06:38:29;93052.97;;;33.03
69420;BMP280;56612;52.030;113.524;2023-05-07T06:41:33;93047.28;;;32.26
69420;BMP280;56612;52.030;113.524;2023-05-07T06:44:43;93066.66;;;33.98
69420;BMP280;56612;52.030;113.524;2023-05-07T06:47:50;93063.97;;;34.13
69420;BMP280;56612;52.030;113.524;2023-05-07T06:50:53;93044.63;;;34.60
69420;BMP280;56612;52.030;113.524;2023-05-07T06:54:00;93055.88;;;34.67
69420;BMP280;56612;52.030;113.524;2023-05-07T06:57:04;93052.47;;;33.26
69420;BMP280;56612;52.030;113.524;2023-05-07T07:00:09;93062.06;;;33.27
69420;BMP280;56612;52.030;113.524;2023-05-07T07:03:25;93052.25;;;35.76
69420;BMP280;56612;52.030;113.524;2023-05-07T07:06:30;93037.19;;;34.98
69420;BMP280;56612;52.030;113.524;2023-05-07T07:09:38;93045.00;;;35.19
69420;BMP280;56612;52.030;113.524;2023-05-07T07:12:43;93048.75;;;35.39
69420;BMP280;56612;52.030;113.524;2023-05-07T07:15:47;93064.84;;;34.35
69420;BMP280;56612;52.030;113.524;2023-05-07T07:18:52;93060.25;;;32.72
69420;BMP280;56612;52.030;113.524;2023-05-07T07:21:55;93041.00;;;32.62
69420;BMP280;56612;52.030;113.524;2023-05-07T07:25:00;93057.78;;;32.68
69420;BMP280;56612;52.030;113.524;2023-05-07T07:28:05;93048.69;;;35.09
69420;BMP280;56612;52.030;113.524;2023-05-07T07:31:12;93045.75;;;33.49
69420;BMP280;56612;52.030;113.524;2023-05-07T07:34:16;93049.91;;;33.83
69420;BMP280;56612;52.030;113.524;2023-05-07T07:37:20;93051.09;;;33.51
69420;BMP280;56612;52.030;113.524;2023-05-07T07:40:25;93053.13;;;34.82
69420;BMP280;56612;52.030;113.524;2023-05-07T07:43:29;93065.13;;;36.10
69420;BMP280;56612;52.030;113.524;2023-05-07T07:46:33;93072.63;;;34.50
69420;BMP280;56612;52.030;113.524;2023-05-07T07:49:37;93058.22;;;33.83
69420;BMP280;56612;52.030;113.524;2023-05-07T07:52:44;93057.63;;;31.53
69420;BMP280;56612;52.030;113.524;2023-05-07T07:55:50;93063.25;;;31.42
69420;BMP280;56612;52.030;113.524;2023-05-07T07:59:02;93053.06;;;30.13
69420;BMP280;56612;52.030;113.524;2023-05-07T08:02:08;93065.25;;;32.08
69420;BMP280;56612;52.030;113.524;2023-05-07T08:05:11;93053.94;;;31.84
69420;BMP280;56612;52.030;113.524;2023-05-07T08:08:17;93065.25;;;31.05
69420;BMP280;56612;52.030;113.524;2023-05-07T08:11:20;93074.97;;;31.04
69420;BMP280;56612;52.030;113.524;2023-05-07T08:14:26;93060.13;;;31.93
69420;BMP280;56612;52.030;113.524;2023-05-07T08:17:31;93064.09;;;32.05
69420;BMP280;56612;52.030;113.524;2023-05-07T08:20:36;93065.22;;;31.44
69420;BMP280;56612;52.030;113.524;2023-05-07T08:23:46;93074.38;;;30.44
69420;BMP280;56612;52.030;113.524;2023-05-07T08:26:51;93051.97;;;31.08
69420;BMP280;56612;52.030;113.524;2023-05-07T08:29:55;93078.66;;;31.39
69420;BMP280;56612;52.030;113.524;2023-05-07T08:33:00;93069.06;;;32.92
69420;BMP280;56612;52.030;113.524;2023-05-07T08:36:03;93085.06;;;31.74
69420;BMP280;56612;52.030;113.524;2023-05-07T08:39:08;93086.16;;;31.41
69420;BMP280;56612;52.030;113.524;2023-05-07T08:42:12;93101.00;;;32.01
69420;BMP280;56612;52.030;113.524;2023-05-07T08:45:20;93100.53;;;30.94
69420;BMP280;56612;52.030;113.524;2023-05-07T08:48:26;93089.38;;;32.18
69420;BMP280;56612;52.030;113.524;2023-05-07T08:51:47;93086.81;;;33.55
69420;BMP280;56612;52.030;113.524;2023-05-07T08:54:50;93104.09;;;34.14
69420;BMP280;56612;52.030;113.524;2023-05-07T08:57:54;93098.53;;;32.87
69420;BMP280;56612;52.030;113.524;2023-05-07T09:00:58;93123.72;;;31.65
69420;BMP280;56612;52.030;113.524;2023-05-07T09:04:04;93117.97;;;32.14
69420;BMP280;56612;52.030;113.524;2023-05-07T09:07:09;93120.25;;;33.36
69420;BMP280;56612;52.030;113.524;2023-05-07T09:10:17;93112.41;;;32.96
69420;BMP280;56612;52.030;113.524;2023-05-07T09:13:21;93110.41;;;32.86
69420;BMP280;56612;52.030;113.524;2023-05-07T09:16:25;93129.69;;;32.15
69420;BMP280;56612;52.030;113.524;2023-05-07T09:19:31;93161.28;;;33.08
69420;BMP280;56612;52.030;113.524;2023-05-07T09:22:38;93155.94;;;31.97
69420;BMP280;56612;52.030;113.524;2023-05-07T09:25:45;93167.06;;;30.90
69420;BMP280;56612;52.030;113.524;2023-05-07T09:28:56;93167.81;;;31.67
69420;BMP280;56612;52.030;113.524;2023-05-07T09:32:05;93162.34;;;31.38
69420;BMP280;56612;52.030;113.524;2023-05-07T09:35:16;93193.22;;;31.21
69420;BMP280;56612;52.030;113.524;2023-05-07T09:38:25;93220.31;;;30.16
69420;BMP280;56612;52.030;113.524;2023-05-07T09:41:43;93188.81;;;30.24
69420;BMP280;56612;52.030;113.524;2023-05-07T09:45:05;93207.56;;;29.68
69420;BMP280;56612;52.030;113.524;2023-05-07T09:48:12;93198.81;;;28.41
69420;BMP280;56612;52.030;113.524;2023-05-07T09:54:26;93208.03;;;28.71
69420;BMP280;56612;52.030;113.524;2023-05-07T09:57:36;93217.72;;;26.97
69420;BMP280;56612;52.030;113.524;2023-05-07T10:00:42;93214.69;;;26.76
69420;BMP280;56612;52.030;113.524;2023-05-07T10:03:50;93229.38;;;26.71
69420;BMP280;56612;52.030;113.524;2023-05-07T10:06:55;93229.44;;;25.55
69420;BMP280;56612;52.030;113.524;2023-05-07T10:10:00;93234.47;;;25.80
69420;BMP280;56612;52.030;113.524;2023-05-07T10:13:10;93239.41;;;23.29
69420;BMP280;56612;52.030;113.524;2023-05-07T10:16:21;93244.50;;;23.75
69420;BMP280;56612;52.030;113.524;2023-05-07T10:19:25;93239.44;;;23.08
69420;BMP280;56612;52.030;113.524;2023-05-07T10:22:43;93246.28;;;21.08
69420;BMP280;56612;52.030;113.524;2023-05-07T10:25:51;93253.47;;;20.11
69420;BMP280;56612;52.030;113.524;2023-05-07T10:29:07;93262.50;;;20.01
69420;BMP280;56612;52.030;113.524;2023-05-07T10:32:30;93268.59;;;19.69
69420;BMP280;56612;52.030;113.524;2023-05-07T10:35:44;93274.50;;;19.09
69420;BMP280;56612;52.030;113.524;2023-05-07T10:38:49;93279.53;;;18.93
69420;BMP280;56612;52.030;113.524;2023-05-07T10:41:54;93293.84;;;18.46
69420;BMP280;56612;52.030;113.524;2023-05-07T10:44:58;93302.50;;;18.55
69420;BMP280;56612;52.030;113.524;2023-05-07T10:48:16;93323.44;;;18.56
69420;BMP280;56612;52.030;113.524;2023-05-07T10:51:35;93320.81;;;18.50
69420;BMP280;56612;52.030;113.524;2023-05-07T10:58:28;93327.75;;;18.39
69420;BMP280;56612;52.030;113.524;2023-05-07T11:05:24;93338.72;;;18.31
69420;BMP280;56612;52.030;113.524;2023-05-07T11:12:02;93367.81;;;17.00
69420;BMP280;56612;52.030;113.524;2023-05-07T11:15:35;93380.84;;;16.73
69420;BMP280;56612;52.030;113.524;2023-05-07T11:18:50;93382.41;;;16.33
69420;BMP280;56612;52.030;113.524;2023-05-07T11:22:01;93381.81;;;16.16
69420;BMP280;56612;52.030;113.524;2023-05-07T11:25:19;93403.44;;;15.98
69420;BMP280;56612;52.030;113.524;2023-05-07T11:28:32;93410.91;;;15.69
69420;BMP280;56612;52.030;113.524;2023-05-07T11:31:40;93415.66;;;15.46
69420;BMP280;56612;52.030;113.524;2023-05-07T11:34:44;93423.09;;;15.42
69420;BMP280;56612;52.030;113.524;2023-05-07T11:37:49;93420.41;;;15.34
69420;BMP280;56612;52.030;113.524;2023-05-07T11:40:59;93450.03;;;15.28
69420;BMP280;56612;52.030;113.524;2023-05-07T11:44:08;93443.28;;;15.04
69420;BMP280;56612;52.030;113.524;2023-05-07T11:47:17;93449.94;;;14.73
69420;BMP280;56612;52.030;113.524;2023-05-07T11:50:21;93466.69;;;14.65
69420;BMP280;56612;52.030;113.524;2023-05-07T11:53:26;93468.63;;;14.38
69420;BMP280;56612;52.030;113.524;2023-05-07T11:56:36;93469.91;;;14.17
69420;BMP280;56612;52.030;113.524;2023-05-07T11:59:41;93486.50;;;13.85
69420;BMP280;56612;52.030;113.524;2023-05-07T12:02:47;93486.34;;;13.65
69420;BMP280;56612;52.030;113.524;2023-05-07T12:05:51;93495.66;;;13.56
69420;BMP280;56612;52.030;113.524;2023-05-07T12:08:55;93505.56;;;13.39
69420;BMP280;56612;52.030;113.524;2023-05-07T12:12:04;93499.34;;;13.20
69420;BMP280;56612;52.030;113.524;2023-05-07T12:15:08;93509.22;;;12.99
69420;BMP280;56612;52.030;113.524;2023-05-07T12:18:13;93529.38;;;13.01
69420;BMP280;56612;52.030;113.524;2023-05-07T12:21:17;93534.69;;;12.98
69420;BMP280;56612;52.030;113.524;2023-05-07T12:24:21;93542.66;;;12.90
69420;BMP280;56612;52.030;113.524;2023-05-07T12:27:25;93551.84;;;12.77
69420;BMP280;56612;52.030;113.524;2023-05-07T12:30:29;93555.91;;;12.76
69420;BMP280;56612;52.030;113.524;2023-05-07T12:33:34;93565.09;;;12.63
69420;BMP280;56612;52.030;113.524;2023-05-07T12:36:39;93577.22;;;12.66
69420;BMP280;56612;52.030;113.524;2023-05-07T12:40:02;93587.28;;;12.68
69420;BMP280;56612;52.030;113.524;2023-05-07T12:43:07;93592.44;;;12.51
69420;BMP280;56612;52.030;113.524;2023-05-07T12:46:11;93613.03;;;12.39
69420;BMP280;56612;52.030;113.524;2023-05-07T12:49:17;93621.66;;;12.35
69420;BMP280;56612;52.030;113.524;2023-05-07T12:52:20;93622.22;;;12.27
69420;BMP280;56612;52.030;113.524;2023-05-07T12:55:25;93626.00;;;12.12
69420;BMP280;56612;52.030;113.524;2023-05-07T12:58:35;93639.28;;;12.04
69420;BMP280;56612;52.030;113.524;2023-05-07T13:01:39;93647.28;;;12.02
69420;BMP280;56612;52.030;113.524;2023-05-07T13:04:43;93645.22;;;11.99
69420;BMP280;56612;52.030;113.524;2023-05-07T13:07:54;93657.63;;;11.82
69420;BMP280;56612;52.030;113.524;2023-05-07T13:11:02;93659.44;;;11.71
69420;BMP280;56612;52.030;113.524;2023-05-07T13:14:08;93677.50;;;11.71
69420;BMP280;56612;52.030;113.524;2023-05-07T13:17:12;93685.56;;;11.73
69420;BMP280;56612;52.030;113.524;2023-05-07T13:20:16;93692.72;;;11.60
69420;BMP280;56612;52.030;113.524;2023-05-07T13:23:20;93697.03;;;11.43
69420;BMP280;56612;52.030;113.524;2023-05-07T13:26:25;93709.50;;;11.31
69420;BMP280;56612;52.030;113.524;2023-05-07T13:29:29;93707.78;;;11.13
69420;BMP280;56612;52.030;113.524;2023-05-07T13:32:34;93709.63;;;11.05
69420;BMP280;56612;52.030;113.524;2023-05-07T13:35:38;93712.72;;;10.93
69420;BMP280;56612;52.030;113.524;2023-05-07T13:38:42;93715.28;;;10.89
69420;BMP280;56612;52.030;113.524;2023-05-07T13:41:46;93732.66;;;10.88
69420;BMP280;56612;52.030;113.524;2023-05-07T13:44:50;93729.72;;;10.78
69420;BMP280;56612;52.030;113.524;2023-05-07T13:47:54;93733.75;;;10.79
69420;BMP280;56612;52.030;113.524;2023-05-07T13:50:58;93738.41;;;10.76
69420;BMP280;56612;52.030;113.524;2023-05-07T13:54:03;93746.22;;;10.68
69420;BMP280;56612;52.030;113.524;2023-05-07T13:57:07;93751.22;;;10.54
69420;BMP280;56612;52.030;113.524;2023-05-07T14:00:10;93749.88;;;10.53
69420;BMP280;56612;52.030;113.524;2023-05-07T14:03:15;93756.28;;;10.42
69420;BMP280;56612;52.030;113.524;2023-05-07T14:06:20;93770.94;;;10.41
69420;BMP280;56612;52.030;113.524;2023-05-07T14:09:25;93768.19;;;10.39
69420;BMP280;56612;52.030;113.524;2023-05-07T14:12:29;93771.09;;;10.47
69420;BMP280;56612;52.030;113.524;2023-05-07T14:15:33;93780.25;;;10.40
69420;BMP280;56612;52.030;113.524;2023-05-07T14:18:37;93782.78;;;10.34
69420;BMP280;56612;52.030;113.524;2023-05-07T14:21:42;93795.72;;;10.43
69420;BMP280;56612;52.030;113.524;2023-05-07T14:24:45;93792.94;;;10.39
69420;BMP280;56612;52.030;113.524;2023-05-07T14:28:07;93795.59;;;10.39
69420;BMP280;56612;52.030;113.524;2023-05-07T14:31:11;93802.03;;;10.30
69420;BMP280;56612;52.030;113.524;2023-05-07T14:34:15;93801.06;;;10.17
69420;BMP280;56612;52.030;113.524;2023-05-07T14:37:18;93800.31;;;10.15
69420;BMP280;56612;52.030;113.524;2023-05-07T14:40:23;93812.41;;;10.18
69420;BMP280;56612;52.030;113.524;2023-05-07T14:43:27;93812.22;;;10.10
69420;BMP280;56612;52.030;113.524;2023-05-07T14:46:31;93813.69;;;9.91
69420;BMP280;56612;52.030;113.524;2023-05-07T14:49:35;93818.34;;;9.90
69420;BMP280;56612;52.030;113.524;2023-05-07T14:52:39;93818.88;;;9.87
69420;BMP280;56612;52.030;113.524;2023-05-07T14:55:43;93820.84;;;9.84
69420;BMP280;56612;52.030;113.524;2023-05-07T14:58:48;93830.53;;;9.74
69420;BMP280;56612;52.030;113.524;2023-05-07T15:01:52;93832.22;;;9.63
69420;BMP280;56612;52.030;113.524;2023-05-07T15:04:56;93836.09;;;9.58
69420;BMP280;56612;52.030;113.524;2023-05-07T15:08:00;93840.97;;;9.44
69420;BMP280;56612;52.030;113.524;2023-05-07T15:11:04;93838.94;;;9.42
69420;BMP280;56612;52.030;113.524;2023-05-07T15:14:08;93843.47;;;9.38
69420;BMP280;56612;52.030;113.524;2023-05-07T15:17:12;93839.31;;;9.33
69420;BMP280;56612;52.030;113.524;2023-05-07T15:20:18;93848.41;;;9.25
69420;BMP280;56612;52.030;113.524;2023-05-07T15:23:22;93851.88;;;9.08
69420;BMP280;56612;52.030;113.524;2023-05-07T15:26:26;93842.53;;;9.07
69420;BMP280;56612;52.030;113.524;2023-05-07T15:29:30;93837.53;;;8.98
69420;BMP280;56612;52.030;113.524;2023-05-07T15:32:38;93847.06;;;8.83
69420;BMP280;56612;52.030;113.524;2023-05-07T15:35:43;93850.34;;;8.81
69420;BMP280;56612;52.030;113.524;2023-05-07T15:38:48;93850.28;;;8.79
69420;BMP280;56612;52.030;113.524;2023-05-07T15:41:52;93853.75;;;8.64
69420;BMP280;56612;52.030;113.524;2023-05-07T15:44:56;93861.81;;;8.46
69420;BMP280;56612;52.030;113.524;2023-05-07T15:48:00;93863.44;;;8.36
69420;BMP280;56612;52.030;113.524;2023-05-07T15:51:04;93856.41;;;8.44
69420;BMP280;56612;52.030;113.524;2023-05-07T15:54:10;93857.63;;;8.41
69420;BMP280;56612;52.030;113.524;2023-05-07T15:57:14;93863.22;;;8.30
69420;BMP280;56612;52.030;113.524;2023-05-07T16:00:18;93868.25;;;8.21
69420;BMP280;56612;52.030;113.524;2023-05-07T16:03:22;93858.75;;;8.16
69420;BMP280;56612;52.030;113.524;2023-05-07T16:06:26;93870.56;;;8.11
69420;BMP280;56612;52.030;113.524;2023-05-07T16:09:31;93868.41;;;8.08
69420;BMP280;56612;52.030;113.524;2023-05-07T16:12:35;93885.75;;;7.91
69420;BMP280;56612;52.030;113.524;2023-05-07T16:15:39;93882.72;;;7.63
69420;BMP280;56612;52.030;113.524;2023-05-07T16:18:43;93883.03;;;7.53
69420;BMP280;56612;52.030;113.524;2023-05-07T16:21:47;93886.09;;;7.48
69420;BMP280;56612;52.030;113.524;2023-05-07T16:24:51;93881.41;;;7.46
69420;BMP280;56612;52.030;113.524;2023-05-07T16:27:55;93882.72;;;7.45
69420;BMP280;56612;52.030;113.524;2023-05-07T16:30:59;93885.38;;;7.45
69420;BMP280;56612;52.030;113.524;2023-05-07T16:34:03;93885.38;;;7.45
69420;BMP280;56612;52.030;113.524;2023-05-07T16:37:07;93896.84;;;7.50
69420;BMP280;56612;52.030;113.524;2023-05-07T16:40:11;93913.66;;;7.54
69420;BMP280;56612;52.030;113.524;2023-05-07T16:43:15;93908.06;;;7.48
69420;BMP280;56612;52.030;113.524;2023-05-07T16:46:19;93909.44;;;7.49
69420;BMP280;56612;52.030;113.524;2023-05-07T16:49:23;93911.69;;;7.55
69420;BMP280;56612;52.030;113.524;2023-05-07T16:52:28;93918.59;;;7.62
69420;BMP280;56612;52.030;113.524;2023-05-07T16:55:37;93917.34;;;7.47
69420;BMP280;56612;52.030;113.524;2023-05-07T16:58:41;93923.31;;;7.30
69420;BMP280;56612;52.030;113.524;2023-05-07T17:01:45;93916.38;;;7.23
69420;BMP280;56612;52.030;113.524;2023-05-07T17:04:49;93923.81;;;7.26
69420;BMP280;56612;52.030;113.524;2023-05-07T17:07:54;93920.94;;;7.20
69420;BMP280;56612;52.030;113.524;2023-05-07T17:10:58;93923.94;;;7.13
69420;BMP280;56612;52.030;113.524;2023-05-07T17:14:01;93924.78;;;7.17
69420;BMP280;56612;52.030;113.524;2023-05-07T17:17:07;93918.78;;;7.17
69420;BMP280;56612;52.030;113.524;2023-05-07T17:20:12;93916.38;;;7.23
69420;BMP280;56612;52.030;113.524;2023-05-07T17:23:16;93912.28;;;7.20
69420;BMP280;56612;52.030;113.524;2023-05-07T17:26:20;93918.69;;;7.15
69420;BMP280;56612;52.030;113.524;2023-05-07T17:29:24;93908.75;;;7.15
69420;BMP280;56612;52.030;113.524;2023-05-07T17:32:28;93916.22;;;7.03
69420;BMP280;56612;52.030;113.524;2023-05-07T17:35:32;93921.03;;;6.91